Time;durP1;ratioP1;P1;durP2;ratioP2;P2;SDS_P1;SDS_P2;PMS_P1;PMS_P2;Temp;Humidity;BMP_temperature;BMP_pressure;BME280_temperature;BME280_humidity;BME280_pressure;Samples;Min_cycle;Max_cycle;Signal;HPM_P1;HPM_P2
2022/06/19 00:00:46;;;;;;;11.02;5.15;;;;;;;;;;4981998;28;20437;-73
2022/06/19 00:03:26;;;;;;;9.98;4.40;;;;;;;;;;5056981;28;20519;-73
2022/06/19 00:05:58;;;;;;;11.05;5.15;;;;;;;;;;5010932;28;20521;-72
2022/06/19 00:08:30;;;;;;;11.38;4.60;;;;;;;;;;5050585;28;20188;-74
2022/06/19 00:11:01;;;;;;;8.88;4.20;;;;;;;;;;5050211;28;20060;-70
2022/06/19 00:13:32;;;;;;;11.25;6.00;;;;;;;;;;5030449;28;20528;-72
2022/06/19 00:16:02;;;;;;;10.25;4.35;;;;;;;;;;4981251;28;20065;-73
2022/06/19 00:18:34;;;;;;;11.68;5.03;;;;;;;;;;4990784;28;20058;-71
2022/06/19 00:21:07;;;;;;;11.57;5.43;;;;;;;;;;4990979;28;20065;-72
2022/06/19 00:23:37;;;;;;;;;;;;;;;;;;4991514;28;20058;-73
2022/06/19 00:26:07;;;;;;;13.10;4.38;;;;;;;;;;4990640;28;19922;-72
2022/06/19 00:28:40;;;;;;;12.90;4.75;;;;;;;;;;4967406;28;20060;-73
2022/06/19 00:31:11;;;;;;;9.52;4.25;;;;;;;;;;4970967;28;20415;-72
2022/06/19 00:33:42;;;;;;;10.05;4.47;;;;;;;;;;4971573;28;20059;-73
2022/06/19 00:36:12;;;;;;;10.23;4.93;;;;;;;;;;4923446;28;20051;-72
2022/06/19 00:38:43;;;;;;;11.65;5.22;;;;;;;;;;4971097;28;20069;-71
2022/06/19 00:41:14;;;;;;;11.55;5.55;;;;;;;;;;4971174;28;20474;-71
2022/06/19 00:44:08;;;;;;;18.63;4.90;;;;;;;;;;4982430;28;20046;-72
2022/06/19 00:47:02;;;;;;;12.20;5.20;;;;;;;;;;4990573;28;20062;-73
2022/06/19 00:49:40;;;;;;;12.30;5.28;;;;;;;;;;4951207;28;20051;-71
2022/06/19 00:52:16;;;;;;;11.65;4.32;;;;;;;;;;4937392;28;20058;-72
2022/06/19 00:54:47;;;;;;;11.15;3.75;;;;;;;;;;4970455;28;20071;-71
2022/06/19 00:57:25;;;;;;;10.68;3.78;;;;;;;;;;4970326;28;20522;-71
2022/06/19 01:00:05;;;;;;;9.63;4.15;;;;;;;;;;4970924;28;20047;-71
2022/06/19 01:02:40;;;;;;;12.27;5.10;;;;;;;;;;4951108;29;20062;-71
2022/06/19 01:05:13;;;;;;;14.07;5.68;;;;;;;;;;4951270;28;20059;-70
2022/06/19 01:07:46;;;;;;;15.95;6.55;;;;;;;;;;4931934;29;20056;-71
2022/06/19 01:10:18;;;;;;;14.63;6.07;;;;;;;;;;4932073;29;20059;-71
2022/06/19 01:12:49;;;;;;;15.82;7.07;;;;;;;;;;4919216;29;20047;-70
2022/06/19 01:15:23;;;;;;;15.85;6.35;;;;;;;;;;4919579;29;20051;-71
2022/06/19 01:17:57;;;;;;;13.48;6.70;;;;;;;;;;4932169;29;20059;-71
2022/06/19 01:20:29;;;;;;;13.32;6.03;;;;;;;;;;4950818;28;20064;-70
2022/06/19 01:23:20;;;;;;;11.85;5.65;;;;;;;;;;4951048;29;20066;-72
2022/06/19 01:25:52;;;;;;;14.48;6.30;;;;;;;;;;4937178;29;20066;-71
2022/06/19 01:28:54;;;;;;;11.65;6.03;;;;;;;;;;4951128;29;20047;-72
2022/06/19 01:31:33;;;;;;;11.85;5.95;;;;;;;;;;4900046;29;20056;-70
2022/06/19 01:34:28;;;;;;;17.05;6.10;;;;;;;;;;4952833;28;20568;-71
2022/06/19 01:37:15;;;;;;;13.00;5.63;;;;;;;;;;4970203;28;20050;-72
2022/06/19 01:39:56;;;;;;;12.48;5.47;;;;;;;;;;4970234;28;20099;-72
2022/06/19 01:42:30;;;;;;;10.32;5.05;;;;;;;;;;4970683;28;20070;-72
2022/06/19 01:45:01;;;;;;;10.85;4.43;;;;;;;;;;4970102;28;20081;-70
2022/06/19 01:47:31;;;;;;;11.50;4.60;;;;;;;;;;4954111;28;20055;-70
2022/06/19 01:50:06;;;;;;;8.38;4.05;;;;;;;;;;4963972;28;20067;-70
2022/06/19 01:52:37;;;;;;;10.27;4.65;;;;;;;;;;4951229;29;20062;-72
2022/06/19 01:55:18;;;;;;;10.98;4.70;;;;;;;;;;4976582;28;20050;-70
2022/06/19 01:57:55;;;;;;;11.18;4.80;;;;;;;;;;5001018;28;20062;-71
2022/06/19 02:00:28;;;;;;;9.55;4.47;;;;;;;;;;5013174;28;20053;-71
2022/06/19 02:03:07;;;;;;;10.65;4.30;;;;;;;;;;5013029;28;20460;-70
2022/06/19 02:05:40;;;;;;;10.82;4.57;;;;;;;;;;4980459;28;20534;-69
2022/06/19 02:08:14;;;;;;;11.75;4.70;;;;;;;;;;4995921;28;20402;-69
2022/06/19 02:10:46;;;;;;;9.52;4.43;;;;;;;;;;5015029;28;20414;-68
2022/06/19 02:13:19;;;;;;;12.25;5.55;;;;;;;;;;5032775;28;20096;-69
2022/06/19 02:15:52;;;;;;;14.15;4.93;;;;;;;;;;5032745;28;20045;-69
2022/06/19 02:18:29;;;;;;;11.40;4.85;;;;;;;;;;5032555;28;20053;-69
2022/06/19 02:20:59;;;;;;;12.50;5.15;;;;;;;;;;5032543;28;20060;-70
2022/06/19 02:23:36;;;;;;;15.50;5.57;;;;;;;;;;5032619;28;20069;-71
2022/06/19 02:26:10;;;;;;;10.82;5.47;;;;;;;;;;5048989;28;20049;-70
2022/06/19 02:28:44;;;;;;;13.88;5.95;;;;;;;;;;5032325;28;20046;-70
2022/06/19 02:31:16;;;;;;;13.88;5.82;;;;;;;;;;5032313;28;20510;-70
2022/06/19 02:33:58;;;;;;;13.55;6.63;;;;;;;;;;5068625;28;20156;-70
2022/06/19 02:36:38;;;;;;;18.92;6.38;;;;;;;;;;5072298;28;20462;-70
2022/06/19 02:39:27;;;;;;;13.85;6.30;;;;;;;;;;5052201;28;20048;-70
2022/06/19 02:42:22;;;;;;;14.85;5.93;;;;;;;;;;5051912;28;20504;-71
2022/06/19 02:44:58;;;;;;;12.55;5.80;;;;;;;;;;5054219;28;20467;-70
2022/06/19 02:47:32;;;;;;;13.30;5.78;;;;;;;;;;5022302;28;20056;-70
2022/06/19 02:50:04;;;;;;;12.27;5.68;;;;;;;;;;5055643;28;20048;-70
2022/06/19 02:52:35;;;;;;;12.13;5.57;;;;;;;;;;5072022;28;20048;-70
2022/06/19 02:55:07;;;;;;;15.05;5.78;;;;;;;;;;5072218;28;20075;-70
2022/06/19 02:57:39;;;;;;;14.48;7.10;;;;;;;;;;5023798;28;20408;-70
2022/06/19 03:00:14;;;;;;;12.25;5.10;;;;;;;;;;5071826;28;20048;-70
2022/06/19 03:02:46;;;;;;;13.25;5.00;;;;;;;;;;5068213;28;20151;-71
2022/06/19 03:05:23;;;;;;;11.75;5.10;;;;;;;;;;5021610;28;20451;-68
2022/06/19 03:07:54;;;;;;;13.15;5.65;;;;;;;;;;5037661;28;20048;-70
2022/06/19 03:10:24;;;;;;;11.25;5.25;;;;;;;;;;5071408;28;20053;-70
2022/06/19 03:12:54;;;;;;;13.15;5.25;;;;;;;;;;5039018;28;20057;-70
2022/06/19 03:15:25;;;;;;;15.95;6.18;;;;;;;;;;5071338;28;20053;-69
2022/06/19 03:17:56;;;;;;;16.88;6.82;;;;;;;;;;5093835;28;20063;-70
2022/06/19 03:20:26;;;;;;;18.35;7.60;;;;;;;;;;5094065;28;20055;-70
2022/06/19 03:22:57;;;;;;;18.15;7.30;;;;;;;;;;5094010;28;20507;-70
2022/06/19 03:25:27;;;;;;;16.60;7.85;;;;;;;;;;5093807;28;20045;-70
2022/06/19 03:27:59;;;;;;;15.40;6.70;;;;;;;;;;5074881;28;20067;-70
2022/06/19 03:30:30;;;;;;;16.08;6.63;;;;;;;;;;5093649;28;20040;-69
2022/06/19 03:33:00;;;;;;;14.43;6.97;;;;;;;;;;5054228;28;20500;-69
2022/06/19 03:35:30;;;;;;;16.70;7.68;;;;;;;;;;5071307;28;20049;-70
2022/06/19 03:38:00;;;;;;;21.17;8.35;;;;;;;;;;5050743;28;20444;-69
2022/06/19 03:40:30;;;;;;;17.15;7.88;;;;;;;;;;5050879;28;20448;-69
2022/06/19 03:43:01;;;;;;;21.25;9.05;;;;;;;;;;5051006;28;20075;-70
2022/06/19 03:45:31;;;;;;;19.98;8.63;;;;;;;;;;5051002;28;20045;-70
2022/06/19 03:48:02;;;;;;;20.05;8.07;;;;;;;;;;5030595;28;20054;-70
2022/06/19 03:50:32;;;;;;;17.52;8.27;;;;;;;;;;5010988;28;20046;-70
2022/06/19 03:53:03;;;;;;;16.00;7.90;;;;;;;;;;5010932;28;20069;-70
2022/06/19 03:55:34;;;;;;;17.95;8.23;;;;;;;;;;5011138;28;20050;-69
2022/06/19 03:58:04;;;;;;;17.15;7.40;;;;;;;;;;4978665;28;20061;-69
2022/06/19 04:00:34;;;;;;;15.15;7.13;;;;;;;;;;4962828;28;20081;-72
2022/06/19 04:03:07;;;;;;;19.27;7.68;;;;;;;;;;5013356;28;20057;-70
2022/06/19 04:05:38;;;;;;;15.25;7.07;;;;;;;;;;5050288;28;20559;-69
2022/06/19 04:08:08;;;;;;;14.30;6.30;;;;;;;;;;5001302;28;20063;-70
2022/06/19 04:10:38;;;;;;;16.83;6.78;;;;;;;;;;5001382;28;20052;-70
2022/06/19 04:13:08;;;;;;;18.05;6.85;;;;;;;;;;5050295;28;20056;-70
2022/06/19 04:15:38;;;;;;;16.90;6.53;;;;;;;;;;5050523;28;20049;-69
2022/06/19 04:18:09;;;;;;;16.58;6.63;;;;;;;;;;5050261;28;20056;-69
2022/06/19 04:20:39;;;;;;;17.08;6.72;;;;;;;;;;5050140;28;20053;-70
2022/06/19 04:23:11;;;;;;;15.68;6.75;;;;;;;;;;5050227;28;20551;-69
2022/06/19 04:25:45;;;;;;;13.80;5.55;;;;;;;;;;5060595;28;20056;-70
2022/06/19 04:28:17;;;;;;;11.38;5.45;;;;;;;;;;5071402;28;20044;-70
2022/06/19 04:30:47;;;;;;;15.02;6.30;;;;;;;;;;5016663;28;20400;-69
2022/06/19 04:33:18;;;;;;;14.75;6.45;;;;;;;;;;5049735;28;20064;-68
2022/06/19 04:35:49;;;;;;;17.00;6.68;;;;;;;;;;5029878;28;20045;-70
2022/06/19 04:38:20;;;;;;;17.00;7.60;;;;;;;;;;5029881;28;20053;-69
2022/06/19 04:40:50;;;;;;;17.50;6.57;;;;;;;;;;4993456;28;20053;-70
2022/06/19 04:43:20;;;;;;;15.38;6.72;;;;;;;;;;4990237;28;20065;-70
2022/06/19 04:45:51;;;;;;;16.70;6.07;;;;;;;;;;4990571;28;20410;-70
2022/06/19 04:48:22;;;;;;;12.95;5.72;;;;;;;;;;4990312;28;20062;-70
2022/06/19 04:50:53;;;;;;;13.73;5.60;;;;;;;;;;4990704;28;20580;-71
2022/06/19 04:53:23;;;;;;;15.82;6.25;;;;;;;;;;4990426;28;20058;-70
2022/06/19 04:55:54;;;;;;;15.07;6.43;;;;;;;;;;4990030;28;20046;-70
2022/06/19 04:58:25;;;;;;;23.77;7.53;;;;;;;;;;4957542;28;20050;-69
2022/06/19 05:00:55;;;;;;;14.32;6.40;;;;;;;;;;4942243;28;20414;-70
2022/06/19 05:03:25;;;;;;;12.80;6.53;;;;;;;;;;4957743;28;20529;-70
2022/06/19 05:06:02;;;;;;;16.33;6.80;;;;;;;;;;5000872;28;20060;-70
2022/06/19 05:08:33;;;;;;;15.13;6.65;;;;;;;;;;4916172;28;20466;-70
2022/06/19 05:11:03;;;;;;;15.75;5.72;;;;;;;;;;4970988;28;20064;-71
2022/06/19 05:13:33;;;;;;;15.65;7.15;;;;;;;;;;4970406;28;20498;-70
2022/06/19 05:16:08;;;;;;;18.92;7.18;;;;;;;;;;4970813;28;20430;-70
2022/06/19 05:18:39;;;;;;;20.35;7.78;;;;;;;;;;4981334;28;20066;-70
2022/06/19 05:21:09;;;;;;;20.05;8.48;;;;;;;;;;4984960;28;20054;-70
2022/06/19 05:23:42;;;;;;;18.20;8.10;;;;;;;;;;4993394;28;20065;-70
2022/06/19 05:26:19;;;;;;;16.85;7.88;;;;;;;;;;4989639;28;20050;-70
2022/06/19 05:28:50;;;;;;;22.05;7.05;;;;;;;;;;4942056;28;20054;-70
2022/06/19 05:31:21;;;;;;;15.68;6.47;;;;;;;;;;4957607;28;20061;-71
2022/06/19 05:33:51;;;;;;;17.77;7.65;;;;;;;;;;5001918;28;20069;-70
2022/06/19 05:36:22;;;;;;;19.75;8.90;;;;;;;;;;5009637;28;20096;-70
2022/06/19 05:38:54;;;;;;;23.65;8.52;;;;;;;;;;5009591;28;20064;-70
2022/06/19 05:41:26;;;;;;;20.00;8.20;;;;;;;;;;4977326;28;20061;-71
2022/06/19 05:43:57;;;;;;;23.90;8.23;;;;;;;;;;5009371;28;20054;-70
2022/06/19 05:46:27;;;;;;;23.52;8.77;;;;;;;;;;5033742;28;20061;-70
2022/06/19 05:48:58;;;;;;;21.15;8.27;;;;;;;;;;5049177;28;20064;-71
2022/06/19 05:51:28;;;;;;;24.13;8.75;;;;;;;;;;5048869;28;20053;-71
2022/06/19 05:53:59;;;;;;;26.80;9.77;;;;;;;;;;5048822;28;20096;-71
2022/06/19 05:56:29;;;;;;;25.05;10.35;;;;;;;;;;4999841;28;20053;-70
2022/06/19 05:59:00;;;;;;;32.47;10.73;;;;;;;;;;5049032;28;20053;-71
2022/06/19 06:01:31;;;;;;;28.15;9.27;;;;;;;;;;5048943;28;20049;-71
2022/06/19 06:04:01;;;;;;;26.10;10.50;;;;;;;;;;5060227;28;20584;-70
2022/06/19 06:06:32;;;;;;;27.55;9.35;;;;;;;;;;5068938;28;20052;-71
2022/06/19 06:09:03;;;;;;;27.98;9.68;;;;;;;;;;5068750;28;20504;-71
2022/06/19 06:11:33;;;;;;;23.02;8.90;;;;;;;;;;5068974;28;20048;-71
2022/06/19 06:14:03;;;;;;;28.02;10.25;;;;;;;;;;5068704;28;20044;-70
2022/06/19 06:16:34;;;;;;;28.80;11.80;;;;;;;;;;5068717;28;20049;-71
2022/06/19 06:19:04;;;;;;;22.50;9.43;;;;;;;;;;5035435;28;20056;-70
2022/06/19 06:21:35;;;;;;;20.90;7.80;;;;;;;;;;5048318;28;20488;-71
2022/06/19 06:24:05;;;;;;;19.80;8.23;;;;;;;;;;5031942;28;20068;-73
2022/06/19 06:26:36;;;;;;;18.23;7.35;;;;;;;;;;5048699;28;20529;-71
2022/06/19 06:29:07;;;;;;;22.30;7.65;;;;;;;;;;4999058;28;20060;-71
2022/06/19 06:31:37;;;;;;;23.77;8.18;;;;;;;;;;5048984;28;20451;-71
2022/06/19 06:34:08;;;;;;;15.77;7.82;;;;;;;;;;5031844;28;20057;-70
2022/06/19 06:36:38;;;;;;;13.95;6.60;;;;;;;;;;5048663;28;20045;-70
2022/06/19 06:39:09;;;;;;;14.95;6.80;;;;;;;;;;5048732;28;20064;-70
2022/06/19 06:41:40;;;;;;;18.40;5.93;;;;;;;;;;5048624;28;20420;-70
2022/06/19 06:44:13;;;;;;;13.88;5.90;;;;;;;;;;5018577;28;20057;-70
2022/06/19 06:46:44;;;;;;;12.38;6.03;;;;;;;;;;5052223;28;20114;-70
2022/06/19 06:49:15;;;;;;;11.85;5.05;;;;;;;;;;5052313;28;20047;-70
2022/06/19 06:51:46;;;;;;;14.65;6.28;;;;;;;;;;5052138;28;20045;-70
2022/06/19 06:54:16;;;;;;;15.90;5.68;;;;;;;;;;5021651;28;20071;-71
2022/06/19 06:56:46;;;;;;;15.52;6.45;;;;;;;;;;5072010;28;20053;-69
2022/06/19 06:59:16;;;;;;;13.18;5.38;;;;;;;;;;5072056;28;20582;-70
2022/06/19 07:01:46;;;;;;;11.82;5.22;;;;;;;;;;5071952;28;20601;-71
2022/06/19 07:04:17;;;;;;;13.90;6.50;;;;;;;;;;5039354;28;20404;-70
2022/06/19 07:06:47;;;;;;;20.70;8.27;;;;;;;;;;5055742;28;20536;-70
2022/06/19 07:09:17;;;;;;;20.17;8.60;;;;;;;;;;5071820;28;20048;-71
2022/06/19 07:11:48;;;;;;;18.50;8.70;;;;;;;;;;5071594;28;20060;-70
2022/06/19 07:14:19;;;;;;;25.10;9.00;;;;;;;;;;5055743;28;20396;-69
2022/06/19 07:16:49;;;;;;;32.10;12.43;;;;;;;;;;5055518;28;20048;-69
2022/06/19 07:19:19;;;;;;;22.10;9.70;;;;;;;;;;5071579;28;20052;-70
2022/06/19 07:21:49;;;;;;;16.25;6.03;;;;;;;;;;5051149;28;20056;-69
2022/06/19 07:24:19;;;;;;;13.07;5.07;;;;;;;;;;5051579;28;20057;-69
2022/06/19 07:26:50;;;;;;;12.30;4.75;;;;;;;;;;5051322;28;20120;-69
2022/06/19 07:29:20;;;;;;;11.60;4.82;;;;;;;;;;5018126;28;20426;-69
2022/06/19 07:31:50;;;;;;;13.13;5.00;;;;;;;;;;5071003;28;20052;-69
2022/06/19 07:34:20;;;;;;;12.15;4.55;;;;;;;;;;5091397;28;20056;-69
2022/06/19 07:36:55;;;;;;;13.35;5.68;;;;;;;;;;5074515;28;20397;-69
2022/06/19 07:39:25;;;;;;;12.63;5.43;;;;;;;;;;5050917;28;20049;-71
2022/06/19 07:41:56;;;;;;;11.85;4.97;;;;;;;;;;5019011;28;20057;-69
2022/06/19 07:44:26;;;;;;;14.13;5.20;;;;;;;;;;5050892;28;20402;-68
2022/06/19 07:52:36;;;;;;;19.00;7.95;;;;;;;;;;5050907;28;20052;-69
2022/06/19 07:55:08;;;;;;;13.43;6.50;;;;;;;;;;4974555;28;20054;-68
2022/06/19 07:57:39;;;;;;;16.40;7.68;;;;;;;;;;4943270;28;20073;-68
2022/06/19 08:00:16;;;;;;;16.08;7.03;;;;;;;;;;4990874;28;20061;-68
2022/06/19 08:02:52;;;;;;;15.63;7.00;;;;;;;;;;5011554;28;20061;-69
2022/06/19 08:05:27;;;;;;;19.70;8.65;;;;;;;;;;5010677;28;20391;-68
2022/06/19 08:08:02;;;;;;;17.33;6.82;;;;;;;;;;4994389;28;20085;-67
2022/06/19 08:10:34;;;;;;;20.42;7.55;;;;;;;;;;5010754;28;20445;-68
2022/06/19 08:13:06;;;;;;;16.92;7.18;;;;;;;;;;5010859;28;20065;-68
2022/06/19 08:15:36;;;;;;;18.77;7.72;;;;;;;;;;4978296;28;20102;-68
2022/06/19 08:18:09;;;;;;;18.45;7.53;;;;;;;;;;5027760;28;20049;-68
2022/06/19 08:20:40;;;;;;;21.60;9.25;;;;;;;;;;5030438;28;20058;-68
2022/06/19 08:23:10;;;;;;;20.50;8.30;;;;;;;;;;4997716;28;20092;-68
2022/06/19 08:25:42;;;;;;;18.95;7.97;;;;;;;;;;5030335;28;20752;-69
2022/06/19 08:28:13;;;;;;;18.27;8.55;;;;;;;;;;4981376;28;20062;-68
2022/06/19 08:30:44;;;;;;;18.13;8.05;;;;;;;;;;5010122;28;20130;-68
2022/06/19 08:33:15;;;;;;;16.10;6.57;;;;;;;;;;5038472;28;20408;-69
2022/06/19 08:35:52;;;;;;;13.77;6.47;;;;;;;;;;5049956;28;20056;-69
2022/06/19 08:38:26;;;;;;;;;;;;;;;;;;5018777;28;20401;-69
2022/06/19 08:41:15;;;;;;;;;;;;;;;;;;5017257;28;20368;-68
2022/06/19 08:44:13;;;;;;;13.32;5.25;;;;;;;;;;4990750;28;19922;-69
2022/06/19 08:47:08;;;;;;;12.57;5.07;;;;;;;;;;4990585;28;20498;-69
2022/06/19 08:49:54;;;;;;;22.00;5.80;;;;;;;;;;4932467;29;20435;-69
2022/06/19 08:52:27;;;;;;;24.70;6.70;;;;;;;;;;4932805;29;20058;-70
2022/06/19 08:55:15;;;;;;;13.27;5.45;;;;;;;;;;4932508;29;20055;-69
2022/06/19 08:58:01;;;;;;;18.55;5.80;;;;;;;;;;4932820;29;20054;-69
2022/06/19 09:00:36;;;;;;;;;;;;;;;;;;4913533;29;20052;-69
2022/06/19 09:03:06;;;;;;;12.70;4.85;;;;;;;;;;4913544;29;19922;-69
2022/06/19 09:05:49;;;;;;;12.23;5.05;;;;;;;;;;4912439;29;20056;-69
2022/06/19 09:08:53;;;;;;;13.60;5.43;;;;;;;;;;4913543;29;20072;-69
2022/06/19 09:11:37;;;;;;;22.27;6.50;;;;;;;;;;4913383;29;20060;-69
2022/06/19 09:14:20;;;;;;;13.90;5.90;;;;;;;;;;4897881;29;20064;-69
2022/06/19 09:16:50;;;;;;;9.70;4.80;;;;;;;;;;4913644;29;20059;-69
2022/06/19 09:19:47;;;;;;;20.15;5.88;;;;;;;;;;4913113;29;20063;-69
2022/06/19 09:22:42;;;;;;;20.88;6.13;;;;;;;;;;4932467;29;20063;-70
2022/06/19 09:25:25;;;;;;;21.05;5.80;;;;;;;;;;4970320;28;20067;-69
2022/06/19 09:28:19;;;;;;;26.95;5.32;;;;;;;;;;5022886;28;20057;-69
2022/06/19 09:30:53;;;;;;;9.00;3.63;;;;;;;;;;4996373;28;20050;-69
2022/06/19 09:33:44;;;;;;;29.70;4.28;;;;;;;;;;5045493;28;20421;-70
2022/06/19 09:36:32;;;;;;;29.42;4.90;;;;;;;;;;5029130;28;20053;-70
2022/06/19 09:39:08;;;;;;;31.65;5.20;;;;;;;;;;5063795;28;20067;-70
2022/06/19 09:41:44;;;;;;;20.17;4.97;;;;;;;;;;5069457;28;20061;-70
2022/06/19 09:44:38;;;;;;;35.53;5.45;;;;;;;;;;5028647;28;20501;-72
2022/06/19 09:47:24;;;;;;;21.77;4.88;;;;;;;;;;5029140;28;20429;-72
2022/06/19 09:50:21;;;;;;;18.20;4.20;;;;;;;;;;4989610;28;20072;-70
2022/06/19 09:53:05;;;;;;;15.30;3.65;;;;;;;;;;4950722;28;20043;-69
2022/06/19 09:55:46;;;;;;;23.23;4.95;;;;;;;;;;4950930;29;20062;-68
2022/06/19 09:58:27;;;;;;;11.07;3.97;;;;;;;;;;4912445;29;20044;-68
2022/06/19 10:01:00;;;;;;;12.35;4.05;;;;;;;;;;4912986;29;20056;-69
2022/06/19 10:03:40;;;;;;;9.05;3.28;;;;;;;;;;4912486;29;20056;-68
2022/06/19 10:06:42;;;;;;;9.52;3.03;;;;;;;;;;4912480;29;20048;-67
2022/06/19 10:09:23;;;;;;;12.85;3.83;;;;;;;;;;4856805;29;20502;-68
2022/06/19 10:11:59;;;;;;;14.10;3.97;;;;;;;;;;4856996;29;20060;-67
2022/06/19 10:14:39;;;;;;;14.45;3.85;;;;;;;;;;4856737;29;20050;-67
2022/06/19 10:17:36;;;;;;;19.35;4.10;;;;;;;;;;4842917;29;20057;-67
2022/06/19 10:20:16;;;;;;;17.50;4.20;;;;;;;;;;4862064;29;20494;-67
2022/06/19 10:22:53;;;;;;;23.83;5.32;;;;;;;;;;4867267;29;20421;-69
2022/06/19 10:25:31;;;;;;;14.80;5.25;;;;;;;;;;4897525;29;20059;-68
2022/06/19 10:28:17;;;;;;;16.77;5.30;;;;;;;;;;4897245;29;20057;-68
2022/06/19 10:31:10;;;;;;;;;;;;;;;;;;4923668;29;20047;-68
2022/06/19 10:34:05;;;;;;;17.33;4.30;;;;;;;;;;4934964;29;19922;-68
2022/06/19 10:37:05;;;;;;;19.80;4.50;;;;;;;;;;4934964;29;20059;-68
2022/06/19 10:39:47;;;;;;;13.88;4.32;;;;;;;;;;4973116;28;20046;-68
2022/06/19 10:42:29;;;;;;;16.92;4.70;;;;;;;;;;4992703;28;20050;-68
2022/06/19 10:45:15;;;;;;;11.48;4.15;;;;;;;;;;4958974;28;20052;-66
2022/06/19 10:47:54;;;;;;;26.17;6.68;;;;;;;;;;5000265;28;20053;-65
2022/06/19 10:50:24;;;;;;;;;;;;;;;;;;5032547;28;20397;-66
2022/06/19 10:53:09;;;;;;;20.58;7.20;;;;;;;;;;4979598;28;19922;-65
2022/06/19 10:56:10;;;;;;;21.73;7.18;;;;;;;;;;5012044;28;20050;-68
2022/06/19 10:58:41;;;;;;;38.35;7.05;;;;;;;;;;4996053;28;20050;-68
2022/06/19 11:04:06;;;;;;;28.40;8.52;;;;;;;;;;4963247;28;20069;-68
2022/06/19 11:04:13;;;;;;;28.42;6.60;;;;;;;;;;5011974;28;20845;-68
2022/06/19 11:06:48;;;;;;;26.67;7.70;;;;;;;;;;5012012;28;20057;-68
2022/06/19 11:09:52;;;;;;;28.48;7.05;;;;;;;;;;5015680;28;20053;-68
2022/06/19 11:12:44;;;;;;;19.52;6.68;;;;;;;;;;4953306;29;20419;-68
2022/06/19 11:15:28;;;;;;;23.13;5.90;;;;;;;;;;4953603;29;20046;-68
2022/06/19 11:18:13;;;;;;;16.92;6.78;;;;;;;;;;4854385;29;20041;-68
2022/06/19 11:21:06;;;;;;;26.30;6.13;;;;;;;;;;4877777;29;20068;-68
2022/06/19 11:23:40;;;;;;;22.85;5.68;;;;;;;;;;4910840;29;20055;-68
2022/06/19 11:26:16;;;;;;;17.85;5.82;;;;;;;;;;4915527;29;20068;-68
2022/06/19 11:29:21;;;;;;;15.75;6.47;;;;;;;;;;4914184;29;20056;-68
2022/06/19 11:32:06;;;;;;;18.67;5.85;;;;;;;;;;4918789;29;20056;-68
2022/06/19 11:34:45;;;;;;;25.27;5.85;;;;;;;;;;4933904;29;20054;-67
2022/06/19 11:37:24;;;;;;;15.25;5.10;;;;;;;;;;4933357;29;20059;-67
2022/06/19 11:40:00;;;;;;;17.63;5.43;;;;;;;;;;4934024;29;20078;-67
2022/06/19 11:42:34;;;;;;;18.50;6.28;;;;;;;;;;4933906;29;20489;-69
2022/06/19 11:45:16;;;;;;;18.95;6.82;;;;;;;;;;4914636;29;20055;-68
2022/06/19 11:47:56;;;;;;;19.73;6.60;;;;;;;;;;4914485;29;20048;-68
2022/06/19 11:50:39;;;;;;;12.45;4.68;;;;;;;;;;4880399;29;20056;-68
2022/06/19 11:53:18;;;;;;;16.30;6.72;;;;;;;;;;4895921;29;20547;-67
2022/06/19 11:56:12;;;;;;;15.80;5.75;;;;;;;;;;4864817;29;20063;-67
2022/06/19 11:58:51;;;;;;;18.88;6.30;;;;;;;;;;4880205;29;20067;-67
2022/06/19 12:01:22;;;;;;;25.40;8.93;;;;;;;;;;4895728;29;20056;-67
2022/06/19 12:03:57;;;;;;;35.22;11.13;;;;;;;;;;4895921;29;20060;-67
2022/06/19 12:06:45;;;;;;;28.85;9.77;;;;;;;;;;4876927;29;20199;-67
2022/06/19 12:09:53;;;;;;;36.55;12.23;;;;;;;;;;4933083;29;20059;-67
2022/06/19 12:12:24;;;;;;;31.00;11.02;;;;;;;;;;4904675;29;20055;-66
2022/06/19 12:14:57;;;;;;;33.92;12.23;;;;;;;;;;4952663;28;20423;-66
2022/06/19 12:17:33;;;;;;;23.17;8.65;;;;;;;;;;4952193;28;20048;-66
2022/06/19 12:20:06;;;;;;;21.77;9.45;;;;;;;;;;4952681;29;20071;-67
2022/06/19 12:22:36;;;;;;;;;;;;;;;;;;4952636;29;20051;-67
2022/06/19 12:25:25;;;;;;;18.23;7.30;;;;;;;;;;4973691;28;19929;-67
2022/06/19 12:28:25;;;;;;;25.52;8.48;;;;;;;;;;5028429;28;20057;-68
2022/06/19 12:31:02;;;;;;;32.15;9.48;;;;;;;;;;5050098;28;20056;-66
2022/06/19 12:33:51;;;;;;;18.98;7.75;;;;;;;;;;5029836;28;20061;-66
2022/06/19 12:36:32;;;;;;;20.23;7.25;;;;;;;;;;5030157;28;20066;-68
2022/06/19 12:39:11;;;;;;;22.83;6.50;;;;;;;;;;5030239;28;20076;-68
2022/06/19 12:42:02;;;;;;;24.23;6.97;;;;;;;;;;5030150;28;20057;-68
2022/06/19 12:44:41;;;;;;;23.50;8.32;;;;;;;;;;5030008;28;20058;-69
2022/06/19 12:47:39;;;;;;;18.75;6.45;;;;;;;;;;5030194;28;20509;-69
2022/06/19 12:50:36;;;;;;;23.35;8.05;;;;;;;;;;4981394;28;20527;-68
2022/06/19 12:53:37;;;;;;;18.80;6.72;;;;;;;;;;5029974;28;20056;-67
2022/06/19 12:56:45;;;;;;;14.80;6.05;;;;;;;;;;5016804;28;20053;-66
2022/06/19 12:59:36;;;;;;;22.75;8.05;;;;;;;;;;4972670;28;20055;-68
2022/06/19 13:02:34;;;;;;;28.50;8.80;;;;;;;;;;4990610;28;20061;-67
2022/06/19 13:05:13;;;;;;;33.95;10.15;;;;;;;;;;4990053;28;20058;-68
2022/06/19 13:08:00;;;;;;;24.35;9.38;;;;;;;;;;4990243;28;20058;-69
2022/06/19 13:10:47;;;;;;;27.90;9.75;;;;;;;;;;4981647;28;20060;-68
2022/06/19 13:13:58;;;;;;;48.35;16.77;;;;;;;;;;5009882;28;20088;-68
2022/06/19 13:16:38;;;;;;;38.30;10.93;;;;;;;;;;5009653;28;20058;-69
2022/06/19 13:19:14;;;;;;;25.65;7.80;;;;;;;;;;5009919;28;20061;-69
2022/06/19 13:21:55;;;;;;;73.63;24.23;;;;;;;;;;5009586;28;20046;-71
2022/06/19 13:24:36;;;;;;;45.67;16.42;;;;;;;;;;4954508;28;20153;-69
2022/06/19 13:27:12;;;;;;;39.55;14.73;;;;;;;;;;4971057;28;20047;-69
2022/06/19 13:30:09;;;;;;;54.80;18.35;;;;;;;;;;4951127;29;20051;-69
2022/06/19 13:32:57;;;;;;;30.95;10.65;;;;;;;;;;4963018;28;20062;-69
2022/06/19 13:35:32;;;;;;;35.85;13.77;;;;;;;;;;4993701;28;20064;-70
2022/06/19 13:38:28;;;;;;;37.30;11.77;;;;;;;;;;4960898;28;20471;-69
2022/06/19 13:41:05;;;;;;;38.55;14.57;;;;;;;;;;5009716;28;20061;-70
2022/06/19 13:43:57;;;;;;;39.65;14.90;;;;;;;;;;5009537;28;20069;-69
2022/06/19 13:47:02;;;;;;;36.22;14.00;;;;;;;;;;5009435;28;20081;-69
2022/06/19 13:49:45;;;;;;;34.28;12.88;;;;;;;;;;4977010;28;20054;-70
2022/06/19 13:52:48;;;;;;;29.67;11.95;;;;;;;;;;5029125;28;20069;-69
2022/06/19 13:55:34;;;;;;;34.33;13.80;;;;;;;;;;5033018;28;20413;-72
2022/06/19 13:58:29;;;;;;;28.00;11.00;;;;;;;;;;5033350;28;20113;-69
2022/06/19 14:01:07;;;;;;;26.77;11.20;;;;;;;;;;5034241;28;20076;-70
2022/06/19 14:07:21;;;;;;;36.35;14.00;;;;;;;;;;5008860;28;20052;-70
2022/06/19 14:10:06;;;;;;;28.35;10.10;;;;;;;;;;5032875;28;20057;-70
2022/06/19 14:13:17;;;;;;;26.55;11.50;;;;;;;;;;5032687;28;20493;-70
2022/06/19 14:16:05;;;;;;;20.38;8.05;;;;;;;;;;4973471;28;20051;-71
2022/06/19 14:18:54;;;;;;;21.55;9.43;;;;;;;;;;4954290;28;20676;-69
2022/06/19 14:21:43;;;;;;;34.33;13.60;;;;;;;;;;4954810;29;20423;-72
2022/06/19 14:24:26;;;;;;;19.60;8.43;;;;;;;;;;4954524;29;20174;-70
2022/06/19 14:27:15;;;;;;;22.45;9.20;;;;;;;;;;4954526;29;20055;-70
2022/06/19 14:29:52;;;;;;;33.05;14.40;;;;;;;;;;4954317;29;20062;-71
2022/06/19 14:32:48;;;;;;;18.35;8.75;;;;;;;;;;4954417;29;20051;-71
2022/06/19 14:35:18;;;;;;;44.25;15.80;;;;;;;;;;4881654;29;20134;-72
2022/06/19 14:37:50;;;;;;;38.67;14.90;;;;;;;;;;4850604;29;20433;-71
2022/06/19 14:40:23;;;;;;;;;;;;;;;;;;4902837;29;20060;-70
2022/06/19 14:43:01;;;;;;;19.55;7.43;;;;;;;;;;4915846;29;20537;-70
2022/06/19 14:45:39;;;;;;;17.00;8.45;;;;;;;;;;4916055;29;20060;-70
2022/06/19 14:48:37;;;;;;;13.65;5.63;;;;;;;;;;4916110;29;20067;-69
2022/06/19 14:51:49;;;;;;;15.38;5.88;;;;;;;;;;4931827;29;20527;-72
2022/06/19 14:54:34;;;;;;;14.88;6.70;;;;;;;;;;4941270;28;20053;-69
2022/06/19 14:57:24;;;;;;;17.83;8.45;;;;;;;;;;5005012;28;20050;-69
2022/06/19 15:00:05;;;;;;;11.63;4.68;;;;;;;;;;5012304;28;20494;-70
2022/06/19 15:03:01;;;;;;;12.93;5.82;;;;;;;;;;5011396;28;20053;-70
2022/06/19 15:05:46;;;;;;;17.42;7.88;;;;;;;;;;5011778;28;20058;-71
2022/06/19 15:08:21;;;;;;;12.95;6.45;;;;;;;;;;4972654;28;20529;-71
2022/06/19 15:10:52;;;;;;;19.20;9.45;;;;;;;;;;4973006;28;20051;-71
2022/06/19 15:13:34;;;;;;;16.23;6.57;;;;;;;;;;5006755;28;20045;-69
2022/06/19 15:16:32;;;;;;;14.40;7.65;;;;;;;;;;5011651;28;20603;-71
2022/06/19 15:19:14;;;;;;;10.52;4.53;;;;;;;;;;4953569;29;20063;-71
2022/06/19 15:21:44;;;;;;;12.32;5.40;;;;;;;;;;4953251;29;20058;-70
2022/06/19 15:24:30;;;;;;;14.45;6.70;;;;;;;;;;4953236;29;20056;-71
2022/06/19 15:27:25;;;;;;;13.35;6.05;;;;;;;;;;4953443;29;20161;-72
2022/06/19 15:30:21;;;;;;;10.98;4.70;;;;;;;;;;4992334;28;20097;-70
2022/06/19 15:33:00;;;;;;;12.15;6.38;;;;;;;;;;4952913;28;20082;-70
2022/06/19 15:36:05;;;;;;;12.88;6.03;;;;;;;;;;4937088;29;20058;-72
2022/06/19 15:38:50;;;;;;;11.13;5.00;;;;;;;;;;4953210;29;20070;-70
2022/06/19 15:42:00;;;;;;;16.83;6.55;;;;;;;;;;4902958;29;20055;-70
2022/06/19 15:44:37;;;;;;;9.00;4.72;;;;;;;;;;4895882;29;20052;-71